Latest Weather Observations for Mount Lofty

IDS60901

Issued at 6:55 pm CDT Friday 24 October 2014 (issued every 10 minutes, with the page automatically refreshed every 10 minutes)

About weather observations | Map of Adelaide area stations | Latest observations for Adelaide area | Other Formats
Station Details ID: 023842 Name: MOUNT LOFTY Lat: -34.98 Lon: 138.71 Height: 685.0 m
Data from the previous 72 hours. | See also: Recent months at Mount Lofty
Date/Time
CDT
Tmp

°C
App
Tmp
°C
Dew
Point
°C
Rel
Hum
%
Delta-T

°C
Wind Press
QNH
hPa
Press
MSL
hPa
Rain
since
9 am
mm
Dir
 
Spd
km/h
Gust
km/h
Spd
kts
Gust
kts
24/06:30pm 22.7 20.9 5.6 33 8.9 SSW 4 7 2 4 - - 0.0
24/06:00pm 25.2 23.2 4.3 26 10.8 SW 4 7 2 4 - - 0.0
24/05:30pm 25.9 23.3 4.4 25 11.2 W 7 15 4 8 - - 0.0
24/05:00pm 26.2 23.5 3.5 23 11.6 W 7 13 4 7 - - 0.0
24/04:30pm 26.8 24.2 4.0 23 11.8 WNW 7 19 4 10 - - 0.0
24/04:00pm 27.0 23.4 2.8 21 12.3 NW 11 19 6 10 - - 0.0
24/03:30pm 26.5 23.1 1.7 20 12.3 WNW 9 19 5 10 - - 0.0
24/03:00pm 25.7 22.4 2.4 22 11.7 WNW 9 19 5 10 - - 0.0
24/02:30pm 25.8 22.9 2.5 22 11.7 WNW 7 19 4 10 - - 0.0
24/02:00pm 25.0 21.7 2.4 23 11.3 WNW 9 20 5 11 - - 0.0
24/01:30pm 24.4 20.6 1.9 23 11.1 WNW 11 20 6 11 - - 0.0
24/01:00pm 24.1 21.1 5.9 31 9.6 WNW 11 20 6 11 - - 0.0
24/12:30pm 23.0 20.8 7.9 38 8.2 W 9 17 5 9 - - 0.0
24/12:00pm 22.2 18.7 7.2 38 8.0 WNW 15 24 8 13 - - 0.0
24/11:30am 22.1 18.8 7.9 40 7.7 WNW 15 32 8 17 - - 0.0
24/11:00am 21.6 18.6 7.8 41 7.4 WNW 13 24 7 13 - - 0.0
24/10:30am 21.1 18.1 7.7 42 7.2 WNW 13 22 7 12 - - 0.0
24/10:00am 19.6 16.5 7.4 45 6.4 NW 13 19 7 10 - - 0.0
24/09:30am 18.5 15.4 7.3 48 5.9 NW 13 19 7 10 - - 0.0
24/09:00am 17.9 14.7 7.0 49 5.6 NW 13 20 7 11 - - 0.0
24/08:30am 17.8 14.1 6.3 47 5.9 WNW 15 24 8 13 - - 0.0
24/08:00am 17.1 13.5 4.8 44 6.1 NW 13 19 7 10 - - 0.0
24/07:30am 16.2 12.5 6.1 51 5.1 WNW 15 24 8 13 - - 0.0
24/07:00am 15.3 11.9 7.6 60 4.0 NW 15 20 8 11 - - 0.0
24/06:30am 15.3 11.4 5.2 51 5.0 NW 15 22 8 12 - - 0.0
24/06:00am 15.4 10.8 3.5 45 5.6 WNW 17 24 9 13 - - 0.0
24/05:30am 17.8 12.8 -0.9 28 8.3 NW 15 19 8 10 - - 0.0
24/05:00am 16.6 12.3 0.7 34 7.2 WNW 13 19 7 10 - - 0.0
24/04:30am 15.9 12.1 1.6 38 6.6 WNW 11 17 6 9 - - 0.0
24/04:00am 14.9 10.9 5.1 52 4.8 WNW 15 19 8 10 - - 0.0
24/03:30am 16.2 11.9 1.1 36 6.9 WNW 13 20 7 11 - - 0.0
24/03:00am 15.2 11.6 4.9 50 5.0 WNW 13 20 7 11 - - 0.0
24/02:30am 15.0 11.4 6.8 58 4.2 WNW 15 20 8 11 - - 0.0
24/02:00am 15.2 11.9 6.2 55 4.5 WNW 13 19 7 10 - - 0.0
24/01:30am 15.3 12.2 7.3 59 4.1 WNW 13 19 7 10 - - 0.0
24/01:00am 15.6 12.5 7.1 57 4.3 WNW 13 17 7 9 - - 0.0
24/12:30am 14.7 11.8 8.0 64 3.5 WNW 13 19 7 10 - - 0.0
24/12:00am 13.4 11.3 11.1 86 1.3 WNW 13 19 7 10 - - 0.0
 
Date/Time
CDT
Tmp

°C
App
Tmp
°C
Dew
Point
°C
Rel
Hum
%
Delta-T

°C
Wind Press
QNH
hPa
Press
MSL
hPa
Rain
since
9 am
mm
Dir
 
Spd
km/h
Gust
km/h
Spd
kts
Gust
kts
23/11:30pm 14.9 12.4 8.4 65 3.4 WNW 11 17 6 9 - - 0.0
23/11:00pm 16.1 12.8 4.5 46 5.7 WNW 11 15 6 8 - - 0.0
23/10:30pm 15.8 12.7 5.7 51 5.0 WNW 11 15 6 8 - - 0.0
23/10:00pm 15.7 13.4 5.6 51 5.0 WNW 7 11 4 6 - - 0.0
23/09:30pm 16.1 13.6 4.8 47 5.5 WNW 7 13 4 7 - - 0.0
23/09:00pm 16.4 14.2 6.0 50 5.2 WNW 7 11 4 6 - - 0.0
23/08:30pm 17.0 14.1 4.7 44 6.1 NW 9 13 5 7 - - 0.0
23/08:00pm 16.6 14.5 6.7 52 5.1 WNW 7 13 4 7 - - 0.0
23/07:30pm 16.4 15.9 12.8 79 2.1 WNW 7 9 4 5 - - 0.0
23/07:00pm 18.2 18.2 13.5 74 2.8 WNW 6 7 3 4 - - 0.0
23/06:30pm 19.2 19.2 12.5 65 3.9 WNW 4 6 2 3 - - 0.0
23/06:00pm 20.2 19.1 10.0 52 5.7 W 6 9 3 5 - - 0.0
23/05:30pm 20.3 19.5 11.8 58 4.9 WNW 7 9 4 5 - - 0.0
23/05:00pm 20.7 20.2 12.1 58 5.0 W 6 11 3 6 - - 0.0
23/04:30pm 21.0 20.6 12.9 60 4.8 W 7 13 4 7 - - 0.0
23/04:00pm 20.9 20.5 13.1 61 4.6 WNW 7 15 4 8 - - 0.0
23/03:30pm 22.2 22.2 13.5 57 5.2 WNW 6 11 3 6 - - 0.0
23/03:00pm 22.1 22.0 13.2 57 5.3 W 6 9 3 5 - - 0.0
23/02:30pm 21.4 21.2 13.1 59 4.9 W 6 9 3 5 - - 0.0
23/02:00pm 21.4 21.3 13.3 60 4.8 W 6 13 3 7 - - 0.0
23/01:30pm 21.3 20.8 12.2 56 5.3 NW 6 11 3 6 - - 0.0
23/01:00pm 20.8 20.3 12.2 58 5.0 NW 6 9 3 5 - - 0.0
23/12:30pm 20.8 20.4 12.5 59 4.8 N 6 9 3 5 - - 0.0
23/12:00pm 20.4 20.6 13.1 63 4.3 NW 4 7 2 4 - - 0.0
23/11:30am 18.7 18.9 12.0 65 3.8 ESE 2 4 1 2 - - 0.0
23/11:00am 16.9 16.8 12.2 74 2.7 ESE 4 7 2 4 - - 0.0
23/10:30am 15.9 16.1 11.7 76 2.4 E 2 6 1 3 - - 0.0
23/10:00am 13.7 13.6 12.1 90 0.9 E 4 7 2 4 - - 0.0
23/09:30am 13.0 12.2 11.2 89 1.0 ESE 6 9 3 5 - - 0.0
23/09:00am 11.1 9.6 10.6 97 0.3 E 9 15 5 8 - - 0.0
23/08:30am 10.4 8.7 9.9 97 0.3 ESE 9 15 5 8 - - 0.0
23/08:00am 10.1 8.4 9.8 98 0.2 E 9 15 5 8 - - 0.0
23/07:30am 9.9 7.4 9.6 98 0.2 E 13 19 7 10 - - 0.0
23/07:00am 9.8 6.9 9.5 98 0.2 E 15 22 8 12 - - 0.0
23/06:30am 9.7 6.3 9.2 97 0.3 ESE 17 22 9 12 - - 0.0
23/06:00am 9.8 6.4 9.3 97 0.3 ESE 17 24 9 13 - - 0.0
23/05:30am 9.7 6.7 9.2 97 0.3 ESE 15 24 8 13 - - 0.0
23/05:00am 9.9 6.6 9.4 97 0.3 ESE 17 26 9 14 - - 0.0
23/04:30am 9.8 6.8 9.3 97 0.3 ESE 15 22 8 12 - - 0.0
23/04:00am 9.9 7.3 9.4 97 0.3 E 13 22 7 12 - - 0.0
23/03:30am 9.8 6.8 9.3 97 0.3 ESE 15 22 8 12 - - 0.0
23/03:00am 9.7 7.1 9.2 97 0.3 ESE 13 19 7 10 - - 0.0
23/02:30am 9.8 7.2 9.2 96 0.3 ESE 13 19 7 10 - - 0.0
23/02:00am 9.8 7.6 9.2 96 0.3 ESE 11 19 6 10 - - 0.0
23/01:30am 9.8 7.1 9.0 95 0.4 ESE 13 20 7 11 - - 0.0
23/01:00am 9.8 7.1 9.0 95 0.4 ESE 13 19 7 10 - - 0.0
23/12:30am 9.9 7.2 9.1 95 0.4 E 13 22 7 12 - - 0.0
23/12:00am 10.4 8.3 9.8 96 0.3 E 11 19 6 10 - - 0.0
 
Date/Time
CDT
Tmp

°C
App
Tmp
°C
Dew
Point
°C
Rel
Hum
%
Delta-T

°C
Wind Press
QNH
hPa
Press
MSL
hPa
Rain
since
9 am
mm
Dir
 
Spd
km/h
Gust
km/h
Spd
kts
Gust
kts
22/11:30pm 10.3 7.4 9.7 96 0.3 E 15 24 8 13 - - 0.0
22/11:00pm 10.4 7.5 9.8 96 0.3 E 15 26 8 14 - - 0.0
22/10:30pm 10.7 7.9 9.9 95 0.4 ESE 15 24 8 13 - - 0.0
22/10:00pm 10.5 7.6 9.7 95 0.4 E 15 24 8 13 - - 0.0
22/09:30pm 10.7 8.1 9.5 92 0.6 ESE 13 20 7 11 - - 0.0
22/09:00pm 10.9 8.3 9.3 90 0.8 ESE 13 20 7 11 - - 0.0
22/08:30pm 12.5 9.8 9.1 80 1.8 ESE 13 24 7 13 - - 0.0
22/08:00pm 12.9 10.7 9.4 79 1.8 ESE 11 20 6 11 - - 0.0
22/07:30pm 13.9 11.4 9.7 76 2.2 ESE 13 22 7 12 - - 0.0
22/07:00pm 15.3 13.2 9.9 70 2.9 ESE 11 19 6 10 - - 0.0
22/06:30pm 16.7 14.0 9.1 61 4.1 ESE 13 22 7 12 - - 0.0
22/06:00pm 17.8 15.0 8.6 55 4.9 ESE 13 20 7 11 - - 0.0
22/05:30pm 19.6 17.3 8.9 50 5.8 ESE 11 20 6 11 - - 0.0
22/05:00pm 20.9 18.3 9.5 48 6.3 ESE 13 22 7 12 - - 0.0
22/04:30pm 21.4 19.0 8.7 44 6.9 ESE 11 20 6 11 - - 0.0
22/04:00pm 22.4 20.4 8.5 41 7.6 ESE 9 20 5 11 - - 0.0
22/03:30pm 22.7 21.0 9.8 44 7.2 SE 9 19 5 10 - - 0.0
22/03:00pm 22.7 21.1 10.2 45 7.1 SE 9 19 5 10 - - 0.0
22/02:30pm 23.7 22.0 9.7 41 7.9 SE 9 17 5 9 - - 0.0
22/02:00pm 26.1 25.1 11.1 39 8.7 SE 7 17 4 9 - - 0.0
22/01:30pm 27.2 26.6 12.4 40 8.8 NNW 7 13 4 7 - - 0.0
22/01:00pm 26.0 24.5 8.5 33 9.8 WNW 6 11 3 6 - - 0.0
22/12:30pm 26.0 24.6 9.4 35 9.4 NW 7 13 4 7 - - 0.0
22/12:00pm 25.9 24.5 9.7 36 9.2 WNW 7 15 4 8 - - 0.0
22/11:30am 26.9 24.1 5.2 25 11.5 NNW 9 20 5 11 - - 0.0
22/11:00am 27.3 26.0 7.7 29 10.9 NNE 4 9 2 5 - - 0.0
22/10:30am 26.3 25.2 6.9 29 10.5 E 2 7 1 4 - - 0.0
22/10:00am 26.1 24.1 4.6 25 11.2 N 4 7 2 4 - - 0.0
22/09:30am 25.7 22.9 3.0 23 11.5 N 7 13 4 7 - - 0.0
22/09:00am 25.9 23.1 1.9 21 11.9 N 6 9 3 5 - - 0.0
22/08:30am 25.9 22.8 1.2 20 12.1 N 7 13 4 7 - - 0.0
22/08:00am 24.9 21.8 0.4 20 11.8 N 6 11 3 6 - - 0.0
22/07:30am 23.9 20.6 0.3 21 11.2 N 7 11 4 6 - - 0.0
22/07:00am 24.3 21.1 0.6 21 11.4 N 7 15 4 8 - - 0.0
22/06:30am 25.3 21.6 0.0 19 12.1 N 9 17 5 9 - - 0.0
22/06:00am 24.5 20.4 0.1 20 11.6 NE 11 19 6 10 - - 0.0
22/05:30am 24.6 20.9 0.2 20 11.6 NNE 9 20 5 11 - - 0.0
22/05:00am 23.0 19.8 0.8 23 10.6 E 7 13 4 7 - - 0.0
22/04:30am 21.0 18.2 1.8 28 9.2 ESE 6 9 3 5 - - 0.0
22/04:00am 21.1 18.1 1.9 28 9.2 E 7 15 4 8 - - 0.0
22/03:30am 21.6 18.2 1.8 27 9.5 ESE 9 17 5 9 - - 0.0
22/03:00am 23.6 20.7 1.3 23 10.8 E 6 13 3 7 - - 0.0
22/02:30am 25.1 21.5 0.6 20 11.8 NNE 9 19 5 10 - - 0.0
22/02:00am 25.1 22.0 -0.1 19 12.0 NE 6 11 3 6 - - 0.0
22/01:30am 25.2 22.1 0.0 19 12.0 E 6 13 3 7 - - 0.0
22/01:00am 25.1 22.3 -0.1 19 12.0 E 4 9 2 5 - - 0.0
22/12:30am 26.5 23.1 -0.5 17 12.9 NNE 7 19 4 10 - - 0.0
22/12:00am 26.5 23.1 -0.5 17 12.9 E 7 17 4 9 - - 0.0
 
Date/Time
CDT
Tmp

°C
App
Tmp
°C
Dew
Point
°C
Rel
Hum
%
Delta-T

°C
Wind Press
QNH
hPa
Press
MSL
hPa
Rain
since
9 am
mm
Dir
 
Spd
km/h
Gust
km/h
Spd
kts
Gust
kts
21/11:30pm 25.7 22.5 -0.4 18 12.4 E 6 13 3 7 - - 0.0
21/11:00pm 25.8 22.4 -0.3 18 12.4 ENE 7 17 4 9 - - 0.0
21/10:30pm 26.6 23.2 -0.4 17 12.9 NE 7 17 4 9 - - 0.0
21/10:00pm 27.5 24.0 -1.4 15 13.7 N 7 17 4 9 - - 0.0
21/09:30pm 26.6 22.8 -0.4 17 12.9 NNE 9 19 5 10 - - 0.0
21/09:00pm 23.6 20.8 3.0 26 10.3 ESE 7 9 4 5 - - 0.0
21/08:30pm 24.4 21.3 1.3 22 11.2 E 7 13 4 7 - - 0.0
21/08:00pm 25.0 22.3 0.5 20 11.8 E 4 6 2 3 - - 0.0
21/07:30pm 25.4 22.8 0.8 20 11.9 ESE 4 4 2 2 - - 0.0
21/07:00pm 26.0 24.0 -0.1 18 12.5 CALM 0 2 0 1 - - 0.0

Latest Capital City Observations: Canberra | Sydney | Melbourne | Brisbane | Adelaide | Perth | Hobart | Darwin

Other Formats:

Comma delimited format used in spreadsheet applications
http://www.bom.gov.au/fwo/IDS60901/IDS60901.95678.axf

JavaScript Object Notation format (JSON) in row-major order
http://www.bom.gov.au/fwo/IDS60901/IDS60901.95678.json